sensor_id;sensor_type;location;lat;lon;timestamp;pressure;altitude;pressure_sealevel;temperature;humidity
42725;BME280;28369;44.046;23.014;2023-01-15T00:01:35;101317.72;;;4.63;100.00
42725;BME280;28369;44.046;23.014;2023-01-15T00:06:39;101312.41;;;4.47;100.00
42725;BME280;28369;44.046;23.014;2023-01-15T00:09:06;101492.66;;;5.65;100.00
42725;BME280;28369;44.046;23.014;2023-01-15T00:11:32;101702.09;;;6.94;100.00
42725;BME280;28369;44.046;23.014;2023-01-15T00:13:58;101563.31;;;6.14;100.00
42725;BME280;28369;44.046;23.014;2023-01-15T00:16:25;101278.50;;;4.29;100.00
42725;BME280;28369;44.046;23.014;2023-01-15T00:18:55;101320.78;;;4.54;100.00
42725;BME280;28369;44.046;23.014;2023-01-15T00:23:56;101279.28;;;4.31;100.00
42725;BME280;28369;44.046;23.014;2023-01-15T00:26:33;101549.56;;;5.93;100.00
42725;BME280;28369;44.046;23.014;2023-01-15T00:29:18;101799.72;;;7.61;100.00
42725;BME280;28369;44.046;23.014;2023-01-15T00:34:32;101330.44;;;4.52;100.00
42725;BME280;28369;44.046;23.014;2023-01-15T00:36:58;101475.91;;;5.51;100.00
42725;BME280;28369;44.046;23.014;2023-01-15T00:39:24;101868.56;;;8.13;100.00
42725;BME280;28369;44.046;23.014;2023-01-15T00:41:51;101289.25;;;4.41;100.00
42725;BME280;28369;44.046;23.014;2023-01-15T00:44:17;101311.59;;;4.64;100.00
42725;BME280;28369;44.046;23.014;2023-01-15T00:46:44;101865.91;;;7.81;100.00
42725;BME280;28369;44.046;23.014;2023-01-15T00:51:45;101444.53;;;5.35;100.00
42725;BME280;28369;44.046;23.014;2023-01-15T00:54:11;101902.97;;;7.73;100.00
42725;BME280;28369;44.046;23.014;2023-01-15T00:56:37;101886.19;;;7.60;100.00
42725;BME280;28369;44.046;23.014;2023-01-15T00:59:04;101291.25;;;3.78;100.00
42725;BME280;28369;44.046;23.014;2023-01-15T01:01:29;101321.22;;;4.25;100.00
42725;BME280;28369;44.046;23.014;2023-01-15T01:03:55;101345.78;;;4.39;100.00
42725;BME280;28369;44.046;23.014;2023-01-15T01:06:21;101394.09;;;5.00;100.00
42725;BME280;28369;44.046;23.014;2023-01-15T01:08:47;101663.09;;;6.56;100.00
42725;BME280;28369;44.046;23.014;2023-01-15T01:18:59;101661.91;;;7.13;100.00
42725;BME280;28369;44.046;23.014;2023-01-15T01:24:11;101242.81;;;4.50;100.00
42725;BME280;28369;44.046;23.014;2023-01-15T01:26:37;101281.88;;;4.68;100.00
42725;BME280;28369;44.046;23.014;2023-01-15T01:29:03;101283.81;;;4.64;100.00
42725;BME280;28369;44.046;23.014;2023-01-15T01:31:29;101552.63;;;6.01;100.00
42725;BME280;28369;44.046;23.014;2023-01-15T01:33:56;101853.47;;;8.18;100.00
42725;BME280;28369;44.046;23.014;2023-01-15T01:38:58;101238.31;;;4.18;100.00
42725;BME280;28369;44.046;23.014;2023-01-15T01:41:24;101543.13;;;6.00;100.00
42725;BME280;28369;44.046;23.014;2023-01-15T01:43:59;101301.41;;;4.59;100.00
42725;BME280;28369;44.046;23.014;2023-01-15T01:52:45;101322.25;;;4.77;100.00
42725;BME280;28369;44.046;23.014;2023-01-15T01:55:33;101260.78;;;4.55;100.00
42725;BME280;28369;44.046;23.014;2023-01-15T02:00:37;101229.63;;;4.36;100.00
42725;BME280;28369;44.046;23.014;2023-01-15T02:03:06;101437.09;;;5.45;100.00
42725;BME280;28369;44.046;23.014;2023-01-15T02:05:37;101572.19;;;6.45;100.00
42725;BME280;28369;44.046;23.014;2023-01-15T02:08:04;101546.22;;;6.42;100.00
42725;BME280;28369;44.046;23.014;2023-01-15T02:10:30;101277.13;;;4.59;100.00
42725;BME280;28369;44.046;23.014;2023-01-15T02:32:09;101824.28;;;8.24;100.00
42725;BME280;28369;44.046;23.014;2023-01-15T02:38:09;101308.34;;;4.95;100.00
42725;BME280;28369;44.046;23.014;2023-01-15T02:40:38;101307.56;;;4.93;100.00
42725;BME280;28369;44.046;23.014;2023-01-15T02:45:42;101223.91;;;4.64;100.00
42725;BME280;28369;44.046;23.014;2023-01-15T02:50:47;101269.56;;;4.72;100.00
42725;BME280;28369;44.046;23.014;2023-01-15T02:53:27;101283.50;;;4.88;100.00
42725;BME280;28369;44.046;23.014;2023-01-15T03:01:20;101234.59;;;4.58;100.00
42725;BME280;28369;44.046;23.014;2023-01-15T03:09:00;101556.59;;;6.77;100.00
42725;BME280;28369;44.046;23.014;2023-01-15T03:11:26;101304.34;;;5.06;100.00
42725;BME280;28369;44.046;23.014;2023-01-15T04:26:55;101820.75;;;8.09;100.00
42725;BME280;28369;44.046;23.014;2023-01-15T04:29:21;101263.72;;;4.30;100.00
42725;BME280;28369;44.046;23.014;2023-01-15T04:31:47;101212.81;;;3.69;100.00
42725;BME280;28369;44.046;23.014;2023-01-15T04:34:12;101209.38;;;3.49;100.00
42725;BME280;28369;44.046;23.014;2023-01-15T04:36:38;101279.25;;;3.95;100.00
42725;BME280;28369;44.046;23.014;2023-01-15T04:39:04;101233.66;;;3.48;100.00
42725;BME280;28369;44.046;23.014;2023-01-15T04:41:30;101270.19;;;3.85;100.00
42725;BME280;28369;44.046;23.014;2023-01-15T04:44:14;101220.34;;;3.16;100.00
42725;BME280;28369;44.046;23.014;2023-01-15T04:46:42;101627.97;;;5.90;100.00
42725;BME280;28369;44.046;23.014;2023-01-15T04:49:15;101259.00;;;3.43;100.00
42725;BME280;28369;44.046;23.014;2023-01-15T04:51:41;101478.78;;;4.91;100.00
42725;BME280;28369;44.046;23.014;2023-01-15T04:54:09;101267.31;;;3.51;100.00
42725;BME280;28369;44.046;23.014;2023-01-15T04:56:44;101331.59;;;3.68;100.00
42725;BME280;28369;44.046;23.014;2023-01-15T04:59:11;101812.59;;;6.80;100.00
42725;BME280;28369;44.046;23.014;2023-01-15T05:01:37;101234.09;;;3.18;100.00
42725;BME280;28369;44.046;23.014;2023-01-15T05:04:03;101230.75;;;3.35;100.00
42725;BME280;28369;44.046;23.014;2023-01-15T05:06:29;101246.63;;;3.69;100.00
42725;BME280;28369;44.046;23.014;2023-01-15T05:08:58;101271.44;;;3.76;100.00
42725;BME280;28369;44.046;23.014;2023-01-15T05:11:24;101246.84;;;3.83;100.00
42725;BME280;28369;44.046;23.014;2023-01-15T05:16:36;101244.72;;;3.91;100.00
42725;BME280;28369;44.046;23.014;2023-01-15T05:19:04;101212.00;;;3.86;100.00
42725;BME280;28369;44.046;23.014;2023-01-15T05:21:34;101482.13;;;5.84;100.00
42725;BME280;28369;44.046;23.014;2023-01-15T05:24:02;101493.25;;;5.70;100.00
42725;BME280;28369;44.046;23.014;2023-01-15T05:26:32;101656.38;;;6.68;100.00
42725;BME280;28369;44.046;23.014;2023-01-15T05:34:09;101287.88;;;4.33;100.00
42725;BME280;28369;44.046;23.014;2023-01-15T05:36:35;101618.97;;;6.67;100.00
42725;BME280;28369;44.046;23.014;2023-01-15T05:39:02;101366.44;;;4.97;100.00
42725;BME280;28369;44.046;23.014;2023-01-15T05:41:29;101224.22;;;4.22;100.00
42725;BME280;28369;44.046;23.014;2023-01-15T05:44:15;101231.81;;;4.26;100.00
42725;BME280;28369;44.046;23.014;2023-01-15T05:49:19;101815.25;;;7.98;100.00
42725;BME280;28369;44.046;23.014;2023-01-15T05:51:45;101823.13;;;8.14;100.00
42725;BME280;28369;44.046;23.014;2023-01-15T05:54:16;101214.72;;;4.21;100.00
42725;BME280;28369;44.046;23.014;2023-01-15T05:56:42;101819.75;;;8.12;100.00
42725;BME280;28369;44.046;23.014;2023-01-15T05:59:10;101248.34;;;4.62;100.00
42725;BME280;28369;44.046;23.014;2023-01-15T06:01:36;101833.28;;;8.20;100.00
42725;BME280;28369;44.046;23.014;2023-01-15T06:04:04;101222.78;;;4.33;100.00
42725;BME280;28369;44.046;23.014;2023-01-15T06:06:31;101262.19;;;4.62;100.00
42725;BME280;28369;44.046;23.014;2023-01-15T06:08:57;101593.72;;;6.84;100.00
42725;BME280;28369;44.046;23.014;2023-01-15T06:11:23;101772.25;;;7.86;100.00
42725;BME280;28369;44.046;23.014;2023-01-15T06:13:49;101255.59;;;4.55;100.00
42725;BME280;28369;44.046;23.014;2023-01-15T06:16:15;101270.63;;;4.85;100.00
42725;BME280;28369;44.046;23.014;2023-01-15T06:18:41;101230.47;;;4.54;100.00
42725;BME280;28369;44.046;23.014;2023-01-15T06:21:09;101324.97;;;4.93;100.00
42725;BME280;28369;44.046;23.014;2023-01-15T06:23:36;101219.28;;;4.52;100.00
42725;BME280;28369;44.046;23.014;2023-01-15T06:28:37;101798.97;;;8.09;100.00
42725;BME280;28369;44.046;23.014;2023-01-15T06:31:08;101239.34;;;4.50;100.00
42725;BME280;28369;44.046;23.014;2023-01-15T06:33:34;101227.47;;;4.44;100.00
42725;BME280;28369;44.046;23.014;2023-01-15T06:36:08;101241.41;;;4.43;100.00
42725;BME280;28369;44.046;23.014;2023-01-15T06:38:35;101576.31;;;6.83;100.00
42725;BME280;28369;44.046;23.014;2023-01-15T06:41:03;101236.84;;;4.66;100.00
42725;BME280;28369;44.046;23.014;2023-01-15T15:19:58;100860.41;;;4.91;100.00
42725;BME280;28369;44.046;23.014;2023-01-15T15:22:27;100919.56;;;5.05;100.00
42725;BME280;28369;44.046;23.014;2023-01-15T15:25:00;100831.09;;;4.71;100.00
42725;BME280;28369;44.046;23.014;2023-01-15T15:27:44;101061.97;;;6.30;100.00
42725;BME280;28369;44.046;23.014;2023-01-15T15:32:44;101050.72;;;5.99;100.00
42725;BME280;28369;44.046;23.014;2023-01-15T15:38:03;100811.56;;;4.48;100.00
42725;BME280;28369;44.046;23.014;2023-01-15T15:43:17;100809.47;;;4.55;100.00
42725;BME280;28369;44.046;23.014;2023-01-15T15:46:17;101417.03;;;8.44;100.00
42725;BME280;28369;44.046;23.014;2023-01-15T15:49:04;101423.56;;;8.23;100.00
42725;BME280;28369;44.046;23.014;2023-01-15T15:51:34;100823.06;;;4.28;100.00
42725;BME280;28369;44.046;23.014;2023-01-15T16:05:23;100906.22;;;4.79;100.00
42725;BME280;28369;44.046;23.014;2023-01-15T16:08:36;100859.09;;;4.52;100.00
42725;BME280;28369;44.046;23.014;2023-01-15T16:11:07;100814.56;;;4.24;100.00
42725;BME280;28369;44.046;23.014;2023-01-15T16:13:41;100835.66;;;4.67;100.00
42725;BME280;28369;44.046;23.014;2023-01-15T16:16:08;101285.03;;;7.03;100.00
42725;BME280;28369;44.046;23.014;2023-01-15T16:18:39;100842.19;;;4.43;100.00
42725;BME280;28369;44.046;23.014;2023-01-15T16:29:19;100839.28;;;4.49;100.00
42725;BME280;28369;44.046;23.014;2023-01-15T16:31:46;101444.16;;;8.29;100.00
42725;BME280;28369;44.046;23.014;2023-01-15T16:34:31;100792.91;;;4.24;100.00
42725;BME280;28369;44.046;23.014;2023-01-15T16:36:59;100876.38;;;4.68;100.00
42725;BME280;28369;44.046;23.014;2023-01-15T16:39:31;101244.44;;;7.12;100.00
42725;BME280;28369;44.046;23.014;2023-01-15T16:42:02;101285.97;;;7.02;100.00
42725;BME280;28369;44.046;23.014;2023-01-15T16:44:38;100867.31;;;4.60;100.00
42725;BME280;28369;44.046;23.014;2023-01-15T16:52:47;101435.34;;;8.30;100.00
42725;BME280;28369;44.046;23.014;2023-01-15T17:00:40;100868.31;;;4.41;100.00
42725;BME280;28369;44.046;23.014;2023-01-15T17:03:19;100867.91;;;4.49;100.00
42725;BME280;28369;44.046;23.014;2023-01-15T17:05:50;100837.25;;;4.38;100.00
42725;BME280;28369;44.046;23.014;2023-01-15T17:08:23;100851.47;;;4.64;100.00
42725;BME280;28369;44.046;23.014;2023-01-15T17:10:58;100818.63;;;4.46;100.00
42725;BME280;28369;44.046;23.014;2023-01-15T17:13:36;101271.72;;;7.07;100.00
42725;BME280;28369;44.046;23.014;2023-01-15T17:18:48;100937.63;;;4.76;100.00
42725;BME280;28369;44.046;23.014;2023-01-15T17:21:17;100815.09;;;4.15;100.00
42725;BME280;28369;44.046;23.014;2023-01-15T17:23:44;101046.97;;;5.57;100.00
42725;BME280;28369;44.046;23.014;2023-01-15T17:26:19;100812.66;;;3.96;100.00
42725;BME280;28369;44.046;23.014;2023-01-15T17:28:45;101030.88;;;5.34;100.00
42725;BME280;28369;44.046;23.014;2023-01-15T17:34:02;100903.69;;;4.61;100.00
42725;BME280;28369;44.046;23.014;2023-01-15T17:36:37;100860.59;;;4.40;100.00
42725;BME280;28369;44.046;23.014;2023-01-15T17:39:02;100867.75;;;4.52;100.00
42725;BME280;28369;44.046;23.014;2023-01-15T17:41:28;100857.34;;;4.52;100.00
42725;BME280;28369;44.046;23.014;2023-01-15T17:43:54;100849.78;;;4.47;100.00
42725;BME280;28369;44.046;23.014;2023-01-15T17:46:19;100800.66;;;4.25;100.00
42725;BME280;28369;44.046;23.014;2023-01-15T17:48:45;100784.34;;;3.90;100.00
42725;BME280;28369;44.046;23.014;2023-01-15T17:51:13;101163.81;;;6.30;100.00
42725;BME280;28369;44.046;23.014;2023-01-15T17:53:39;100818.69;;;4.28;100.00
42725;BME280;28369;44.046;23.014;2023-01-15T17:58:40;100805.00;;;4.41;100.00
42725;BME280;28369;44.046;23.014;2023-01-15T18:01:26;101225.19;;;7.13;99.52
42725;BME280;28369;44.046;23.014;2023-01-15T18:04:26;100779.00;;;4.25;97.64
42725;BME280;28369;44.046;23.014;2023-01-15T18:07:10;101221.25;;;6.91;96.89
42725;BME280;28369;44.046;23.014;2023-01-15T18:09:36;101130.66;;;6.61;96.67
42725;BME280;28369;44.046;23.014;2023-01-15T18:12:03;100819.06;;;4.68;95.58
42725;BME280;28369;44.046;23.014;2023-01-15T18:14:29;101375.69;;;8.21;96.34
42725;BME280;28369;44.046;23.014;2023-01-15T18:16:55;101382.53;;;8.09;96.23
42725;BME280;28369;44.046;23.014;2023-01-15T18:19:20;100898.34;;;5.11;96.71
42725;BME280;28369;44.046;23.014;2023-01-15T18:21:46;100868.25;;;4.75;96.98
42725;BME280;28369;44.046;23.014;2023-01-15T18:24:12;100760.88;;;4.23;97.59
42725;BME280;28369;44.046;23.014;2023-01-15T18:26:39;100761.09;;;4.19;97.83
42725;BME280;28369;44.046;23.014;2023-01-15T18:29:06;101288.66;;;7.45;99.25
42725;BME280;28369;44.046;23.014;2023-01-15T18:31:32;100775.03;;;4.33;99.12
42725;BME280;28369;44.046;23.014;2023-01-15T18:33:58;100753.13;;;4.06;100.00
42725;BME280;28369;44.046;23.014;2023-01-15T18:36:24;100775.31;;;4.13;100.00
42725;BME280;28369;44.046;23.014;2023-01-15T18:38:50;100867.72;;;4.84;100.00
42725;BME280;28369;44.046;23.014;2023-01-15T18:41:18;100811.13;;;4.40;100.00
42725;BME280;28369;44.046;23.014;2023-01-15T18:47:25;100750.59;;;3.88;100.00
42725;BME280;28369;44.046;23.014;2023-01-15T18:49:51;101165.84;;;6.70;100.00
42725;BME280;28369;44.046;23.014;2023-01-15T18:52:19;100754.06;;;4.05;100.00
42725;BME280;28369;44.046;23.014;2023-01-15T18:55:11;100753.13;;;3.90;100.00
42725;BME280;28369;44.046;23.014;2023-01-15T18:57:37;100724.13;;;3.82;100.00
42725;BME280;28369;44.046;23.014;2023-01-15T19:00:03;100778.31;;;4.21;100.00
42725;BME280;28369;44.046;23.014;2023-01-15T19:02:28;100921.59;;;4.83;100.00
42725;BME280;28369;44.046;23.014;2023-01-15T19:04:54;100976.53;;;5.27;100.00
42725;BME280;28369;44.046;23.014;2023-01-15T19:07:20;100730.97;;;3.83;100.00
42725;BME280;28369;44.046;23.014;2023-01-15T19:09:45;100672.75;;;3.53;100.00
42725;BME280;28369;44.046;23.014;2023-01-15T19:12:11;101336.34;;;7.65;100.00
42725;BME280;28369;44.046;23.014;2023-01-15T19:14:38;100899.16;;;4.81;100.00
42725;BME280;28369;44.046;23.014;2023-01-15T19:17:23;101374.09;;;7.89;100.00
42725;BME280;28369;44.046;23.014;2023-01-15T19:20:14;100740.19;;;4.04;99.74
42725;BME280;28369;44.046;23.014;2023-01-15T19:30:26;101195.56;;;6.83;95.66
42725;BME280;28369;44.046;23.014;2023-01-15T19:32:52;100761.69;;;4.24;94.76
42725;BME280;28369;44.046;23.014;2023-01-15T19:35:18;100793.09;;;4.37;96.00
42725;BME280;28369;44.046;23.014;2023-01-15T19:37:44;100939.44;;;5.38;95.75
42725;BME280;28369;44.046;23.014;2023-01-15T19:42:45;100996.38;;;6.06;92.66
42725;BME280;28369;44.046;23.014;2023-01-15T19:45:48;101329.44;;;8.20;93.06
42725;BME280;28369;44.046;23.014;2023-01-15T19:53:43;100762.41;;;4.58;90.71
42725;BME280;28369;44.046;23.014;2023-01-15T19:56:09;101023.34;;;6.35;90.75
42725;BME280;28369;44.046;23.014;2023-01-15T19:58:34;100839.66;;;5.19;90.62
42725;BME280;28369;44.046;23.014;2023-01-15T20:03:36;100961.00;;;5.86;91.10
42725;BME280;28369;44.046;23.014;2023-01-15T20:06:06;100766.22;;;4.36;91.51
42725;BME280;28369;44.046;23.014;2023-01-15T20:08:32;101345.16;;;8.20;91.89
42725;BME280;28369;44.046;23.014;2023-01-15T20:10:58;100737.47;;;4.54;91.05
42725;BME280;28369;44.046;23.014;2023-01-15T20:13:24;100718.69;;;4.32;90.96
42725;BME280;28369;44.046;23.014;2023-01-15T20:16:12;100706.59;;;4.31;90.85
42725;BME280;28369;44.046;23.014;2023-01-15T20:18:38;100713.75;;;4.28;91.52
42725;BME280;28369;44.046;23.014;2023-01-15T20:21:04;100709.19;;;4.31;91.37
42725;BME280;28369;44.046;23.014;2023-01-15T20:23:30;101140.94;;;6.79;91.60
42725;BME280;28369;44.046;23.014;2023-01-15T20:26:04;100684.28;;;4.27;91.31
42725;BME280;28369;44.046;23.014;2023-01-15T20:28:30;101116.59;;;6.64;93.32
42725;BME280;28369;44.046;23.014;2023-01-15T20:30:56;101287.81;;;7.73;94.37
42725;BME280;28369;44.046;23.014;2023-01-15T20:33:23;100706.16;;;4.09;94.17
42725;BME280;28369;44.046;23.014;2023-01-15T20:35:48;101002.06;;;5.82;93.75
42725;BME280;28369;44.046;23.014;2023-01-15T20:38:17;100708.06;;;4.05;94.23
42725;BME280;28369;44.046;23.014;2023-01-15T20:40:43;100703.88;;;4.03;93.74
42725;BME280;28369;44.046;23.014;2023-01-15T20:43:09;100671.31;;;3.63;94.87
42725;BME280;28369;44.046;23.014;2023-01-15T20:45:53;100774.78;;;4.22;95.44
42725;BME280;28369;44.046;23.014;2023-01-15T20:48:20;100702.63;;;3.78;95.60
42725;BME280;28369;44.046;23.014;2023-01-15T20:51:11;100894.66;;;5.15;94.85
42725;BME280;28369;44.046;23.014;2023-01-15T20:53:37;100709.75;;;4.06;94.07
42725;BME280;28369;44.046;23.014;2023-01-15T20:56:12;101167.47;;;7.16;94.35
42725;BME280;28369;44.046;23.014;2023-01-15T20:58:38;100891.03;;;5.17;93.78
42725;BME280;28369;44.046;23.014;2023-01-15T21:01:05;100756.00;;;4.33;94.04
42725;BME280;28369;44.046;23.014;2023-01-15T21:03:33;100788.38;;;4.59;92.88
42725;BME280;28369;44.046;23.014;2023-01-15T21:05:59;100688.84;;;4.08;93.23
42725;BME280;28369;44.046;23.014;2023-01-15T21:08:25;100895.03;;;5.53;93.65
42725;BME280;28369;44.046;23.014;2023-01-15T21:10:52;101264.25;;;7.73;94.56
42725;BME280;28369;44.046;23.014;2023-01-15T21:13:19;100760.06;;;4.37;94.68
42725;BME280;28369;44.046;23.014;2023-01-15T21:15:59;100734.94;;;4.22;95.23
42725;BME280;28369;44.046;23.014;2023-01-15T21:18:27;100744.22;;;4.10;94.98
42725;BME280;28369;44.046;23.014;2023-01-15T21:20:53;100698.75;;;3.85;95.08
42725;BME280;28369;44.046;23.014;2023-01-15T21:23:20;100783.34;;;4.40;96.48
42725;BME280;28369;44.046;23.014;2023-01-15T21:25:46;100836.56;;;4.66;96.68
42725;BME280;28369;44.046;23.014;2023-01-15T21:28:12;100758.66;;;4.31;95.73
42725;BME280;28369;44.046;23.014;2023-01-15T21:30:41;100719.16;;;4.09;95.66
42725;BME280;28369;44.046;23.014;2023-01-15T21:33:08;100676.59;;;3.94;95.58
42725;BME280;28369;44.046;23.014;2023-01-15T21:35:38;101284.31;;;7.87;96.29
42725;BME280;28369;44.046;23.014;2023-01-15T21:38:05;100853.00;;;4.99;96.70
42725;BME280;28369;44.046;23.014;2023-01-15T21:43:06;101259.66;;;7.77;97.04
42725;BME280;28369;44.046;23.014;2023-01-15T21:45:50;100905.88;;;5.62;96.19
42725;BME280;28369;44.046;23.014;2023-01-15T21:48:19;100736.16;;;4.30;95.80
42725;BME280;28369;44.046;23.014;2023-01-15T21:50:44;101066.09;;;6.49;96.39
42725;BME280;28369;44.046;23.014;2023-01-15T21:53:10;100676.19;;;3.86;96.27
42725;BME280;28369;44.046;23.014;2023-01-15T21:55:36;100636.34;;;3.85;96.72
42725;BME280;28369;44.046;23.014;2023-01-15T21:58:01;100701.50;;;4.14;96.62
42725;BME280;28369;44.046;23.014;2023-01-15T22:00:27;101065.72;;;6.55;96.63
42725;BME280;28369;44.046;23.014;2023-01-15T22:02:53;100617.06;;;3.73;96.38
42725;BME280;28369;44.046;23.014;2023-01-15T22:05:20;100915.47;;;5.76;96.18
42725;BME280;28369;44.046;23.014;2023-01-15T22:07:46;100752.97;;;4.25;95.87
42725;BME280;28369;44.046;23.014;2023-01-15T22:10:12;100767.06;;;4.21;96.46
42725;BME280;28369;44.046;23.014;2023-01-15T22:12:38;100908.56;;;5.30;96.83
42725;BME280;28369;44.046;23.014;2023-01-15T22:15:08;100919.75;;;5.62;96.95
42725;BME280;28369;44.046;23.014;2023-01-15T22:17:34;100784.53;;;4.35;97.57
42725;BME280;28369;44.046;23.014;2023-01-15T22:19:59;100723.34;;;3.95;97.96
42725;BME280;28369;44.046;23.014;2023-01-15T22:22:25;100714.78;;;3.93;98.18
42725;BME280;28369;44.046;23.014;2023-01-15T22:24:57;100931.88;;;5.17;99.80
42725;BME280;28369;44.046;23.014;2023-01-15T22:27:22;100711.41;;;3.75;100.00
42725;BME280;28369;44.046;23.014;2023-01-15T22:29:48;100637.53;;;3.48;100.00
42725;BME280;28369;44.046;23.014;2023-01-15T22:32:15;101030.22;;;6.08;100.00
42725;BME280;28369;44.046;23.014;2023-01-15T22:34:41;100671.31;;;3.79;100.00
42725;BME280;28369;44.046;23.014;2023-01-15T22:37:12;100597.94;;;3.58;99.78
42725;BME280;28369;44.046;23.014;2023-01-15T22:39:38;101257.72;;;7.52;99.63
42725;BME280;28369;44.046;23.014;2023-01-15T22:42:04;100640.56;;;3.72;98.91
42725;BME280;28369;44.046;23.014;2023-01-15T22:44:48;100897.19;;;5.61;98.67
42725;BME280;28369;44.046;23.014;2023-01-15T22:47:14;101046.59;;;6.54;98.61
42725;BME280;28369;44.046;23.014;2023-01-15T22:49:40;100904.09;;;5.62;98.41
42725;BME280;28369;44.046;23.014;2023-01-15T22:52:06;101046.13;;;6.33;98.53
42725;BME280;28369;44.046;23.014;2023-01-15T22:54:32;100786.56;;;4.76;96.90
42725;BME280;28369;44.046;23.014;2023-01-15T23:09:46;100892.78;;;4.71;100.00
42725;BME280;28369;44.046;23.014;2023-01-15T23:12:12;100602.56;;;2.88;100.00
42725;BME280;28369;44.046;23.014;2023-01-15T23:14:38;101140.91;;;6.19;100.00
42725;BME280;28369;44.046;23.014;2023-01-15T23:17:04;100646.91;;;3.01;100.00
42725;BME280;28369;44.046;23.014;2023-01-15T23:19:29;101229.06;;;6.46;100.00
42725;BME280;28369;44.046;23.014;2023-01-15T23:21:55;100567.75;;;2.41;100.00
42725;BME280;28369;44.046;23.014;2023-01-15T23:24:21;100769.41;;;3.77;100.00
42725;BME280;28369;44.046;23.014;2023-01-15T23:26:47;100899.16;;;4.81;100.00
42725;BME280;28369;44.046;23.014;2023-01-15T23:29:12;100712.00;;;3.65;100.00
42725;BME280;28369;44.046;23.014;2023-01-15T23:31:38;100846.06;;;4.67;100.00
42725;BME280;28369;44.046;23.014;2023-01-15T23:34:04;100695.22;;;3.54;100.00
42725;BME280;28369;44.046;23.014;2023-01-15T23:36:29;100867.22;;;4.29;100.00
42725;BME280;28369;44.046;23.014;2023-01-15T23:38:55;101200.09;;;6.35;100.00
42725;BME280;28369;44.046;23.014;2023-01-15T23:41:22;100560.59;;;2.29;100.00
42725;BME280;28369;44.046;23.014;2023-01-15T23:44:13;100616.75;;;2.30;100.00
42725;BME280;28369;44.046;23.014;2023-01-15T23:46:58;100695.75;;;2.94;100.00
42725;BME280;28369;44.046;23.014;2023-01-15T23:49:24;100760.72;;;3.27;100.00
42725;BME280;28369;44.046;23.014;2023-01-15T23:51:50;100971.00;;;4.53;100.00
42725;BME280;28369;44.046;23.014;2023-01-15T23:54:15;100981.78;;;4.45;100.00
42725;BME280;28369;44.046;23.014;2023-01-15T23:56:41;100551.59;;;2.01;100.00
42725;BME280;28369;44.046;23.014;2023-01-15T23:59:07;100579.97;;;2.21;100.00
